PHTO/ITO METAR and TAF weather

Enter ICAO airport designator
Station Type Date Time Source
PHTO METAR 2022/12/03 00:25 UTC NOAA

PHTO 030025Z 26005KT 10SM FEW021 BKN048 OVC055 24/22 A2991 RMK AO2 RAE15 P0006 T02390217


Station Type Date Time Source
PHTO Decoded METAR 2022/12/03 00:25 UTC NOAA

HILO INTERNATIONAL AIRPORT, HI, United States (PHTO) 19-43N 155-03W 12M
Dec 02, 2022 - 07:25 PM EST / 2022.12.03 0025 UTC
Wind: from the W (260 degrees) at 6 MPH (5 KT):0
Visibility: 10 mile(s):0
Sky conditions: overcast
Precipitation last hour: 0.06 inches
Temperature: 75.0 F (23.9 C)
Dew Point: 71.1 F (21.7 C)
Relative Humidity: 87%
Pressure (altimeter): 29.91 in. Hg (1012 hPa)
ob: PHTO 030025Z 26005KT 10SM FEW021 BKN048 OVC055 24/22 A2991 RMK AO2 RAE15 P0006 T02390217
cycle: 0

Station Type Date Time Source
PHTO TAF 2022/12/02 21:06 UTC NOAA

TAF
AMD PHTO 022104Z 0221/0318 24006KT P6SM VCSH FEW035 SCT050
TEMPO 0221/0222 29007KT 3SM +SHRA SCT015 BKN020 OVC035
FM022200 07008KT P6SM VCSH SCT025 BKN050
FM030400 VRB05KT 6SM SHRA BKN025 OVC045

Example: see airport list